Time;durP1;ratioP1;P1;durP2;ratioP2;P2;SDS_P1;SDS_P2;PMS_P1;PMS_P2;Temp;Humidity;BMP_temperature;BMP_pressure;BME280_temperature;BME280_humidity;BME280_pressure;Samples;Min_cycle;Max_cycle;Signal;HPM_P1;HPM_P2
2021/08/30 00:00:12;;;;;;;27.58;15.40;;;16.70;99.90;;;;;;5075004;28;20163;-74
2021/08/30 00:02:38;;;;;;;28.58;14.90;;;16.80;99.90;;;;;;5075339;28;20051;-74
2021/08/30 00:05:04;;;;;;;27.70;14.98;;;16.80;99.90;;;;;;5075577;28;20040;-74
2021/08/30 00:07:30;;;;;;;23.90;15.07;;;16.80;99.90;;;;;;5075093;28;20044;-74
2021/08/30 00:09:55;;;;;;;27.35;14.50;;;16.80;99.90;;;;;;5073742;28;20128;-74
2021/08/30 00:12:21;;;;;;;22.20;14.05;;;16.90;99.90;;;;;;5073962;28;20044;-74
2021/08/30 00:14:47;;;;;;;30.50;15.32;;;16.80;99.90;;;;;;5075102;28;20040;-74
2021/08/30 00:17:12;;;;;;;22.27;14.73;;;16.70;99.90;;;;;;5074961;28;20037;-74
2021/08/30 00:19:38;;;;;;;26.85;15.90;;;16.80;99.90;;;;;;5074833;28;20052;-74
2021/08/30 00:22:05;;;;;;;26.70;15.57;;;16.80;99.90;;;;;;5075027;28;20090;-74
2021/08/30 00:24:31;;;;;;;25.40;15.57;;;16.90;99.90;;;;;;5074912;28;20111;-74
2021/08/30 00:26:57;;;;;;;25.80;15.85;;;16.90;99.90;;;;;;5074215;28;20032;-74
2021/08/30 00:29:26;;;;;;;29.50;15.20;;;16.90;99.90;;;;;;5072060;28;20048;-74
2021/08/30 00:31:53;;;;;;;22.98;14.40;;;16.90;99.90;;;;;;5074910;28;20040;-73
2021/08/30 00:34:18;;;;;;;31.15;15.98;;;16.90;99.90;;;;;;5075008;28;20115;-72
2021/08/30 00:36:44;;;;;;;27.80;15.98;;;16.90;99.90;;;;;;5073787;28;20425;-73
2021/08/30 00:39:10;;;;;;;27.15;15.40;;;16.90;99.90;;;;;;5073048;28;20506;-72
2021/08/30 00:41:35;;;;;;;24.65;14.50;;;16.90;99.90;;;;;;5073108;28;20048;-72
2021/08/30 00:44:01;;;;;;;33.33;15.90;;;16.90;99.90;;;;;;5074640;28;20032;-73
2021/08/30 00:46:26;;;;;;;29.52;14.27;;;16.90;99.90;;;;;;5074478;28;20477;-73
2021/08/30 00:48:52;;;;;;;27.85;15.43;;;17.00;99.90;;;;;;5072838;28;20072;-73
2021/08/30 00:51:19;;;;;;;29.58;16.33;;;17.00;99.90;;;;;;5074420;28;20040;-73
2021/08/30 00:53:46;;;;;;;30.65;15.45;;;17.00;99.90;;;;;;5074747;28;20112;-74
2021/08/30 00:56:16;;;;;;;28.88;15.20;;;17.00;99.90;;;;;;5074175;28;20093;-73
2021/08/30 00:58:42;;;;;;;32.05;17.15;;;17.00;99.90;;;;;;5073212;28;20488;-73
2021/08/30 01:01:14;;;;;;;36.30;16.02;;;17.00;99.90;;;;;;5074287;28;20040;-72
2021/08/30 01:03:40;;;;;;;31.15;15.05;;;17.00;99.90;;;;;;5074049;28;20036;-73
2021/08/30 01:06:33;;;;;;;35.20;16.27;;;17.00;99.90;;;;;;5074151;28;20033;-73
2021/08/30 01:09:32;;;;;;;29.88;15.20;;;17.00;99.90;;;;;;5073781;28;20373;-73
2021/08/30 01:12:12;;;;;;;27.63;16.33;;;17.00;99.90;;;;;;5074598;28;20069;-72
2021/08/30 01:14:48;;;;;;;32.42;15.43;;;17.00;99.90;;;;;;5074011;28;20388;-73
2021/08/30 01:17:15;;;;;;;33.25;16.15;;;17.00;99.90;;;;;;5072968;28;20063;-72
2021/08/30 01:19:52;;;;;;;28.92;16.08;;;17.00;99.90;;;;;;5073550;28;20049;-73
2021/08/30 01:22:19;;;;;;;33.22;16.17;;;17.00;99.90;;;;;;5073650;28;20078;-73
2021/08/30 01:24:46;;;;;;;32.10;15.02;;;17.00;99.90;;;;;;5073784;28;20040;-73
2021/08/30 01:27:12;;;;;;;33.10;14.73;;;17.00;99.90;;;;;;5073576;28;20489;-73
2021/08/30 01:30:00;;;;;;;32.03;15.85;;;16.90;99.90;;;;;;5072400;28;20058;-73
2021/08/30 01:32:37;;;;;;;29.40;16.23;;;17.00;99.90;;;;;;5073829;28;20044;-73
2021/08/30 01:35:24;;;;;;;31.98;15.27;;;17.00;99.90;;;;;;5074005;28;20044;-73
2021/08/30 01:37:54;;;;;;;36.78;16.52;;;17.00;99.90;;;;;;5073191;28;20041;-74
2021/08/30 01:40:22;;;;;;;38.83;17.58;;;17.00;99.90;;;;;;5071529;28;20518;-73
2021/08/30 01:42:52;;;;;;;34.25;15.32;;;17.00;99.90;;;;;;5073618;28;20032;-73
2021/08/30 01:45:21;;;;;;;31.20;16.52;;;17.00;99.90;;;;;;5074056;28;20036;-73
2021/08/30 01:47:48;;;;;;;32.05;15.27;;;17.00;99.90;;;;;;5073987;28;20036;-74
2021/08/30 01:50:17;;;;;;;36.15;17.08;;;17.00;99.90;;;;;;5071876;28;20503;-74
2021/08/30 01:52:44;;;;;;;31.88;16.23;;;17.00;99.90;;;;;;5073604;28;20059;-73
2021/08/30 02:00:47;;;;;;;33.03;19.00;;;17.00;99.90;;;;;;5072070;28;20084;-73
2021/08/30 02:03:20;;;;;;;31.98;17.08;;;17.00;99.90;;;;;;5072130;28;20072;-73
2021/08/30 02:05:58;;;;;;;36.55;18.08;;;17.00;99.90;;;;;;5072043;28;20044;-73
2021/08/30 02:08:25;;;;;;;33.67;17.67;;;17.00;99.90;;;;;;5073600;28;20036;-75
2021/08/30 02:10:53;;;;;;;39.80;17.75;;;17.00;99.90;;;;;;5073144;28;20051;-74
2021/08/30 02:13:22;;;;;;;39.58;18.75;;;17.10;99.90;;;;;;5073303;28;20097;-74
2021/08/30 02:15:48;;;;;;;35.53;18.70;;;17.00;99.90;;;;;;5073172;28;20041;-73
2021/08/30 02:18:41;;;;;;;33.25;17.80;;;17.00;99.90;;;;;;5073180;28;20041;-74
2021/08/30 02:21:15;;;;;;;41.88;19.25;;;17.00;99.90;;;;;;5071287;28;20066;-74
2021/08/30 02:24:18;;;;;;;38.50;18.63;;;17.00;99.90;;;;;;5073035;28;20427;-74
2021/08/30 02:26:49;;;;;;;36.90;18.87;;;17.00;99.90;;;;;;5073116;28;20033;-73
2021/08/30 02:29:21;;;;;;;36.30;19.25;;;17.00;99.90;;;;;;5071690;28;20477;-74
2021/08/30 02:31:51;;;;;;;37.03;18.33;;;17.00;99.90;;;;;;5073004;28;20047;-74
2021/08/30 02:34:24;;;;;;;32.78;17.90;;;17.00;99.90;;;;;;5072997;28;20036;-74
2021/08/30 02:36:53;;;;;;;39.50;19.35;;;17.10;99.90;;;;;;5073353;28;20037;-74
2021/08/30 02:39:19;;;;;;;41.13;19.58;;;17.00;99.90;;;;;;5071381;28;20090;-73
2021/08/30 02:41:46;;;;;;;42.25;20.17;;;17.00;99.90;;;;;;5073214;28;20036;-73
2021/08/30 02:44:15;;;;;;;38.88;17.88;;;17.00;99.90;;;;;;5073435;28;20089;-74
2021/08/30 02:46:43;;;;;;;38.70;18.88;;;17.00;99.90;;;;;;5071437;28;20033;-73
2021/08/30 02:49:09;;;;;;;39.92;19.13;;;17.00;99.90;;;;;;5072650;28;20481;-74
2021/08/30 02:51:35;;;;;;;29.25;18.25;;;17.00;99.90;;;;;;5055099;28;20044;-73
2021/08/30 02:54:01;;;;;;;33.92;18.02;;;17.00;99.90;;;;;;5076104;28;20072;-73
2021/08/30 02:56:27;;;;;;;41.03;20.52;;;17.00;99.90;;;;;;5075928;28;20133;-73
2021/08/30 02:58:54;;;;;;;38.97;19.25;;;17.00;99.90;;;;;;5076147;28;20043;-73
2021/08/30 03:01:23;;;;;;;38.78;18.65;;;17.00;99.90;;;;;;5076343;28;20128;-73
2021/08/30 03:03:50;;;;;;;33.92;18.98;;;16.90;99.90;;;;;;5076668;28;20056;-73
2021/08/30 03:06:17;;;;;;;40.03;19.05;;;16.90;99.90;;;;;;5076467;28;20036;-74
2021/08/30 03:08:42;;;;;;;39.92;19.92;;;16.90;99.90;;;;;;5076254;28;20036;-74
2021/08/30 03:11:10;;;;;;;39.55;20.85;;;17.00;99.90;;;;;;5076452;28;20382;-74
2021/08/30 03:13:40;;;;;;;40.38;20.70;;;17.00;99.90;;;;;;5076287;28;20036;-74
2021/08/30 03:16:05;;;;;;;36.20;19.88;;;16.90;99.90;;;;;;5075174;28;20044;-74
2021/08/30 03:18:33;;;;;;;37.95;20.45;;;17.00;99.90;;;;;;5075791;28;20036;-74
2021/08/30 03:20:59;;;;;;;33.20;19.13;;;17.00;99.90;;;;;;5075887;28;20503;-73
2021/08/30 03:23:27;;;;;;;37.22;20.08;;;17.00;99.90;;;;;;5075194;28;20508;-74
2021/08/30 03:25:54;;;;;;;29.52;19.02;;;17.00;99.90;;;;;;5075370;28;20036;-73
2021/08/30 03:28:21;;;;;;;37.65;19.60;;;17.00;99.90;;;;;;5076210;28;20381;-74
2021/08/30 03:30:48;;;;;;;29.73;19.10;;;17.00;99.90;;;;;;5075769;28;20045;-73
2021/08/30 03:33:14;;;;;;;42.10;19.52;;;17.00;99.90;;;;;;5074619;28;20514;-73
2021/08/30 03:35:41;;;;;;;36.90;19.67;;;16.90;99.90;;;;;;5076262;28;20045;-73
2021/08/30 03:38:08;;;;;;;31.02;18.23;;;16.90;99.90;;;;;;5075821;28;20036;-74
2021/08/30 03:40:35;;;;;;;41.60;18.95;;;16.90;99.90;;;;;;5075408;28;20080;-72
2021/08/30 03:43:02;;;;;;;36.85;20.13;;;16.80;99.90;;;;;;5075741;28;20043;-74
2021/08/30 03:45:29;;;;;;;38.60;20.15;;;16.90;99.90;;;;;;5075734;28;20515;-73
2021/08/30 03:47:57;;;;;;;36.33;20.17;;;16.90;99.90;;;;;;5076056;28;20068;-74
2021/08/30 03:50:23;;;;;;;31.08;18.42;;;16.90;99.90;;;;;;5075334;28;20044;-74
2021/08/30 03:52:49;;;;;;;28.90;18.55;;;16.90;99.90;;;;;;5075389;28;20044;-74
2021/08/30 03:55:15;;;;;;;33.33;19.40;;;16.90;99.90;;;;;;5076005;28;20070;-74
2021/08/30 03:57:40;;;;;;;36.15;19.30;;;16.80;99.90;;;;;;5074460;28;20048;-74
2021/08/30 04:00:09;;;;;;;33.60;18.48;;;16.90;99.90;;;;;;5075336;28;20522;-74
2021/08/30 04:02:36;;;;;;;33.85;19.52;;;16.90;99.90;;;;;;5073966;28;20040;-73
2021/08/30 04:05:04;;;;;;;33.35;20.20;;;16.90;99.90;;;;;;5075588;28;20546;-74
2021/08/30 04:07:32;;;;;;;35.00;19.73;;;16.90;99.90;;;;;;5075293;28;20044;-73
2021/08/30 04:09:58;;;;;;;33.10;19.83;;;16.90;99.90;;;;;;5074918;28;20071;-73
2021/08/30 04:12:24;;;;;;;32.92;18.45;;;16.80;99.90;;;;;;5074297;28;20347;-74
2021/08/30 04:14:50;;;;;;;34.70;17.63;;;16.90;99.90;;;;;;5073859;28;20040;-74
2021/08/30 04:17:16;;;;;;;31.23;18.40;;;16.90;99.90;;;;;;5075204;28;20552;-74
2021/08/30 04:19:42;;;;;;;29.08;17.88;;;16.90;99.90;;;;;;5074786;28;20128;-74
2021/08/30 04:22:08;;;;;;;41.92;18.27;;;16.90;99.90;;;;;;5074921;28;20037;-74
2021/08/30 04:24:34;;;;;;;33.47;18.08;;;16.90;99.90;;;;;;5075120;28;20036;-74
2021/08/30 04:27:00;;;;;;;34.83;21.45;;;16.90;99.90;;;;;;5075033;28;20568;-74
2021/08/30 04:29:27;;;;;;;27.98;17.60;;;16.90;99.90;;;;;;5074567;28;20032;-74
2021/08/30 04:31:53;;;;;;;44.28;20.58;;;16.90;99.90;;;;;;5074689;28;20515;-74
2021/08/30 04:34:22;;;;;;;34.90;20.20;;;16.90;99.90;;;;;;5073474;28;20501;-72
2021/08/30 04:36:49;;;;;;;33.35;19.85;;;16.90;99.90;;;;;;5073804;28;20091;-74
2021/08/30 04:39:15;;;;;;;36.05;21.55;;;16.90;99.90;;;;;;5072979;28;20496;-74
2021/08/30 04:41:42;;;;;;;34.83;19.08;;;16.90;99.90;;;;;;5074729;28;20070;-74
2021/08/30 04:44:09;;;;;;;30.65;19.48;;;16.90;99.90;;;;;;5074591;28;20050;-74
2021/08/30 04:46:34;;;;;;;40.90;21.67;;;16.90;99.90;;;;;;5074987;28;20419;-74
2021/08/30 04:49:00;;;;;;;37.97;20.10;;;16.80;99.90;;;;;;5073288;28;20059;-74
2021/08/30 04:51:26;;;;;;;32.78;19.50;;;16.90;99.90;;;;;;5074607;28;20058;-74
2021/08/30 04:53:51;;;;;;;34.70;20.58;;;16.90;99.90;;;;;;5074388;28;20089;-74
2021/08/30 04:56:24;;;;;;;30.88;17.88;;;16.90;99.90;;;;;;5073084;28;20119;-74
2021/08/30 04:58:50;;;;;;;30.55;19.50;;;16.90;99.90;;;;;;5072770;28;20048;-74
2021/08/30 05:01:15;;;;;;;30.65;18.48;;;16.90;99.90;;;;;;5074604;28;20048;-74
2021/08/30 05:03:41;;;;;;;32.85;18.83;;;16.90;99.90;;;;;;5074561;28;20033;-74
2021/08/30 05:06:06;;;;;;;25.88;18.00;;;16.90;99.90;;;;;;5074005;28;20556;-74
2021/08/30 05:08:32;;;;;;;27.63;19.60;;;16.90;99.90;;;;;;5072926;28;20041;-74
2021/08/30 05:10:58;;;;;;;30.20;18.85;;;16.90;99.90;;;;;;5072838;28;20045;-74
2021/08/30 05:13:23;;;;;;;28.75;19.63;;;16.90;99.90;;;;;;5074619;28;20039;-74
2021/08/30 05:15:49;;;;;;;29.25;17.48;;;16.90;99.90;;;;;;5073323;28;20480;-74
2021/08/30 05:18:15;;;;;;;29.50;18.55;;;16.90;99.90;;;;;;5072423;28;20037;-74
2021/08/30 05:20:40;;;;;;;37.67;19.60;;;16.90;99.90;;;;;;5072175;28;20041;-75
2021/08/30 05:23:06;;;;;;;26.05;17.27;;;16.90;99.90;;;;;;5073806;28;20094;-74
2021/08/30 05:25:32;;;;;;;34.75;18.73;;;16.90;99.90;;;;;;5072571;28;20040;-75
2021/08/30 05:27:58;;;;;;;30.13;18.80;;;16.80;99.90;;;;;;5073733;28;20056;-75
2021/08/30 05:30:23;;;;;;;31.33;17.80;;;16.90;99.90;;;;;;5073408;28;20044;-75
2021/08/30 05:32:49;;;;;;;25.55;17.30;;;16.90;99.90;;;;;;5074138;28;20380;-75
2021/08/30 05:35:15;;;;;;;26.02;17.73;;;16.90;99.90;;;;;;5072282;28;20040;-75
2021/08/30 05:37:41;;;;;;;26.27;17.95;;;16.90;99.90;;;;;;5073340;28;20396;-74
2021/08/30 05:40:07;;;;;;;26.58;17.27;;;16.90;99.90;;;;;;5072111;28;20047;-75
2021/08/30 05:42:33;;;;;;;26.58;17.05;;;16.90;99.90;;;;;;5072158;28;20042;-75
2021/08/30 05:44:58;;;;;;;28.88;18.33;;;17.00;99.90;;;;;;5073871;28;20044;-74
2021/08/30 05:47:24;;;;;;;34.55;18.00;;;17.00;99.90;;;;;;5073593;28;20033;-74
2021/08/30 05:49:50;;;;;;;28.25;17.85;;;17.00;99.90;;;;;;5073033;28;20041;-74
2021/08/30 05:52:15;;;;;;;27.33;18.15;;;17.00;99.90;;;;;;5072001;28;20101;-75
2021/08/30 05:54:41;;;;;;;25.20;16.75;;;17.00;99.90;;;;;;5073500;28;20107;-75
2021/08/30 05:57:07;;;;;;;29.10;17.88;;;17.00;99.90;;;;;;5073700;28;20032;-75
2021/08/30 05:59:32;;;;;;;31.17;17.88;;;17.10;99.90;;;;;;5055051;28;20373;-75
2021/08/30 06:01:58;;;;;;;32.90;17.60;;;17.10;99.90;;;;;;5073429;28;20044;-75
2021/08/30 06:04:24;;;;;;;23.80;16.77;;;17.00;99.90;;;;;;5073380;28;20048;-75
2021/08/30 06:06:50;;;;;;;26.40;17.40;;;17.10;99.90;;;;;;5073530;28;20055;-75
2021/08/30 06:09:15;;;;;;;21.60;16.15;;;17.10;99.90;;;;;;5073122;28;20037;-75
2021/08/30 06:11:41;;;;;;;22.83;16.02;;;17.10;99.90;;;;;;5073098;28;20115;-75
2021/08/30 06:14:07;;;;;;;22.08;15.57;;;17.10;99.90;;;;;;5071904;28;20071;-75
2021/08/30 06:16:32;;;;;;;22.02;15.68;;;17.10;99.90;;;;;;5073053;28;20040;-75
2021/08/30 06:18:58;;;;;;;22.30;15.07;;;17.20;99.90;;;;;;5072659;28;20079;-75
2021/08/30 06:21:23;;;;;;;25.30;15.68;;;17.20;99.90;;;;;;5073284;28;20397;-75
2021/08/30 06:23:50;;;;;;;24.48;15.55;;;17.20;99.90;;;;;;5073080;28;20036;-75
2021/08/30 06:26:15;;;;;;;23.35;15.68;;;17.30;99.90;;;;;;5055650;28;20137;-75
2021/08/30 06:28:41;;;;;;;21.13;16.40;;;17.30;99.90;;;;;;5074700;28;20500;-75
2021/08/30 06:31:07;;;;;;;24.50;15.50;;;17.40;99.90;;;;;;5077391;28;20074;-75
2021/08/30 06:33:32;;;;;;;20.88;14.73;;;17.40;99.90;;;;;;5077165;28;20079;-74
2021/08/30 06:35:58;;;;;;;20.38;14.25;;;17.50;99.90;;;;;;5075832;28;20087;-74
2021/08/30 06:38:23;;;;;;;19.35;14.35;;;17.50;99.90;;;;;;5075746;28;20044;-75
2021/08/30 06:40:49;;;;;;;20.65;14.85;;;17.50;99.90;;;;;;5076777;28;20537;-75
2021/08/30 06:43:14;;;;;;;23.30;13.32;;;17.60;99.90;;;;;;5075896;28;20446;-75
2021/08/30 06:45:40;;;;;;;22.73;14.10;;;17.60;99.90;;;;;;5077022;28;20045;-75
2021/08/30 06:48:06;;;;;;;24.00;15.25;;;17.70;99.90;;;;;;5076726;28;20041;-75
2021/08/30 06:50:31;;;;;;;22.27;14.30;;;17.70;99.90;;;;;;5076446;28;20036;-75
2021/08/30 06:52:57;;;;;;;26.92;14.80;;;17.80;99.90;;;;;;5075601;28;20040;-75
2021/08/30 06:55:22;;;;;;;19.40;12.38;;;17.90;99.90;;;;;;5076723;28;20032;-75
2021/08/30 06:57:48;;;;;;;22.20;13.45;;;18.00;99.90;;;;;;5075518;28;20041;-74
2021/08/30 07:00:18;;;;;;;20.88;13.60;;;18.10;99.90;;;;;;5074793;28;20489;-74
2021/08/30 07:02:44;;;;;;;17.92;13.98;;;18.20;99.90;;;;;;5076317;28;20091;-75
2021/08/30 07:05:10;;;;;;;21.40;14.07;;;18.30;99.90;;;;;;5076431;28;20040;-75
2021/08/30 07:07:36;;;;;;;18.33;12.88;;;18.50;99.90;;;;;;5076351;28;20567;-74
2021/08/30 07:10:03;;;;;;;19.10;12.57;;;18.60;99.90;;;;;;5076308;28;20064;-74
2021/08/30 07:12:28;;;;;;;24.23;13.00;;;18.80;99.90;;;;;;5075540;28;20056;-75
2021/08/30 07:14:54;;;;;;;18.02;12.10;;;18.60;99.90;;;;;;5076524;28;20033;-74
2021/08/30 07:17:20;;;;;;;21.05;13.02;;;18.70;99.90;;;;;;5058951;28;20036;-74
2021/08/30 07:19:46;;;;;;;20.98;12.45;;;18.60;99.90;;;;;;5076500;28;20550;-74
2021/08/30 07:22:12;;;;;;;17.30;12.25;;;18.60;99.90;;;;;;5077437;28;20090;-74
2021/08/30 07:24:37;;;;;;;20.60;11.38;;;19.00;99.90;;;;;;5076728;28;20039;-73
2021/08/30 07:27:03;;;;;;;17.10;11.95;;;19.00;99.90;;;;;;5076351;28;20044;-74
2021/08/30 07:29:33;;;;;;;15.52;11.23;;;19.40;99.90;;;;;;5075797;28;20076;-74
2021/08/30 07:31:59;;;;;;;20.25;11.82;;;19.60;99.90;;;;;;5076037;28;20048;-75
2021/08/30 07:34:25;;;;;;;17.02;11.07;;;19.70;99.90;;;;;;5076072;28;20037;-74
2021/08/30 07:36:53;;;;;;;15.75;10.65;;;19.90;99.90;;;;;;5075808;28;20111;-75
2021/08/30 07:39:19;;;;;;;16.23;11.13;;;20.10;99.90;;;;;;5073664;28;20048;-73
2021/08/30 07:41:46;;;;;;;13.70;10.32;;;20.30;99.90;;;;;;5075774;28;20047;-74
2021/08/30 07:44:12;;;;;;;17.90;11.00;;;20.10;99.90;;;;;;5074518;28;20044;-75
2021/08/30 07:46:38;;;;;;;15.57;10.70;;;20.10;99.90;;;;;;5075766;28;20076;-75
2021/08/30 07:49:04;;;;;;;14.20;10.27;;;20.20;99.90;;;;;;5075396;28;20099;-74
2021/08/30 07:51:30;;;;;;;13.93;10.18;;;20.40;99.90;;;;;;5075538;28;20097;-74
2021/08/30 07:53:58;;;;;;;12.07;8.88;;;20.60;99.90;;;;;;5075801;28;20393;-74
2021/08/30 07:56:23;;;;;;;14.27;10.00;;;20.50;99.90;;;;;;5075593;28;20085;-74
2021/08/30 07:58:49;;;;;;;12.45;9.85;;;20.60;99.90;;;;;;5075703;28;20131;-75
2021/08/30 08:01:15;;;;;;;15.05;9.63;;;20.50;99.90;;;;;;5075266;28;20904;-75
2021/08/30 08:03:40;;;;;;;13.65;9.68;;;20.60;99.90;;;;;;5074608;28;20032;-74
2021/08/30 08:06:06;;;;;;;15.93;10.02;;;20.50;99.90;;;;;;5075371;28;20028;-74
2021/08/30 08:08:32;;;;;;;14.93;9.52;;;20.80;99.90;;;;;;5074381;28;20048;-74
2021/08/30 08:10:57;;;;;;;12.05;8.05;;;20.80;99.90;;;;;;5074408;28;20443;-71
2021/08/30 08:13:23;;;;;;;13.57;7.50;;;21.00;99.90;;;;;;5073806;28;20435;-71
2021/08/30 08:15:50;;;;;;;13.00;8.20;;;21.20;99.90;;;;;;5075178;28;20068;-70
2021/08/30 08:18:15;;;;;;;14.43;8.68;;;21.30;99.90;;;;;;5074965;28;20044;-70
2021/08/30 08:20:41;;;;;;;13.60;8.38;;;21.40;99.90;;;;;;5075092;28;20094;-70
2021/08/30 08:23:07;;;;;;;11.68;7.85;;;21.40;99.90;;;;;;5075394;28;20040;-70
2021/08/30 08:25:33;;;;;;;10.73;8.05;;;21.40;99.90;;;;;;5075120;28;20036;-70
2021/08/30 08:28:04;;;;;;;8.15;6.15;;;21.70;99.90;;;;;;5073560;28;20070;-70
2021/08/30 08:30:30;;;;;;;11.20;6.80;;;21.10;99.90;;;;;;5074740;28;20032;-70
2021/08/30 08:32:57;;;;;;;7.68;5.45;;;20.50;99.90;;;;;;5074948;28;20086;-70
2021/08/30 08:35:23;;;;;;;9.02;7.22;;;20.50;99.90;;;;;;5075185;28;20115;-70
2021/08/30 08:37:49;;;;;;;8.55;6.88;;;20.50;99.90;;;;;;5074704;28;20036;-70
2021/08/30 08:40:15;;;;;;;8.25;6.53;;;20.40;99.90;;;;;;5074391;28;20404;-70
2021/08/30 08:42:42;;;;;;;10.15;6.47;;;20.60;99.90;;;;;;5074547;28;20037;-71
2021/08/30 08:45:10;;;;;;;11.65;7.47;;;20.50;99.90;;;;;;5074568;28;20039;-70
2021/08/30 08:47:37;;;;;;;6.75;5.95;;;20.80;99.90;;;;;;5074840;28;20497;-71
2021/08/30 08:50:08;;;;;;;9.60;6.43;;;20.70;99.90;;;;;;5073640;28;20047;-71
2021/08/30 08:52:34;;;;;;;10.23;7.38;;;20.90;99.90;;;;;;5073333;28;20374;-71
2021/08/30 08:55:01;;;;;;;7.28;6.57;;;20.80;99.90;;;;;;5074340;28;20119;-71
2021/08/30 08:57:27;;;;;;;8.70;5.85;;;21.10;99.90;;;;;;5073294;28;20072;-71
2021/08/30 09:00:00;;;;;;;9.90;6.22;;;21.40;99.90;;;;;;5073803;28;20444;-71
2021/08/30 09:02:30;;;;;;;9.65;6.15;;;21.60;99.90;;;;;;5074152;28;20032;-71
2021/08/30 09:04:58;;;;;;;11.23;6.65;;;21.60;99.90;;;;;;5073149;28;20114;-71
2021/08/30 09:07:35;;;;;;;8.48;6.00;;;21.60;99.90;;;;;;5074686;28;20055;-71
2021/08/30 09:10:02;;;;;;;7.68;5.60;;;21.20;99.90;;;;;;5073744;28;20044;-72
2021/08/30 09:12:28;;;;;;;9.43;6.65;;;21.10;99.90;;;;;;5074041;28;20048;-71
2021/08/30 09:14:54;;;;;;;7.72;5.40;;;21.10;99.90;;;;;;5074028;28;20377;-71
2021/08/30 09:17:20;;;;;;;8.43;6.03;;;21.10;99.90;;;;;;5074020;28;20040;-72
2021/08/30 09:19:46;;;;;;;9.40;5.30;;;21.30;99.90;;;;;;5072396;28;20393;-71
2021/08/30 09:22:13;;;;;;;8.35;4.70;;;21.40;99.90;;;;;;5073783;28;20051;-71
2021/08/30 09:24:39;;;;;;;5.63;4.25;;;21.40;99.90;;;;;;5073886;28;20037;-70
2021/08/30 09:27:10;;;;;;;8.35;5.13;;;21.20;99.90;;;;;;5073802;28;20094;-70
2021/08/30 09:29:38;;;;;;;7.68;4.90;;;21.20;99.90;;;;;;5072208;28;20051;-70
2021/08/30 09:32:14;;;;;;;8.63;5.32;;;21.40;99.90;;;;;;5073744;28;20420;-71
2021/08/30 09:34:45;;;;;;;5.32;4.38;;;21.30;99.90;;;;;;5073639;28;20045;-71
2021/08/30 09:37:17;;;;;;;7.35;4.65;;;21.40;99.90;;;;;;5072497;28;20079;-70
2021/08/30 09:39:55;;;;;;;6.72;5.07;;;21.50;99.90;;;;;;5073289;28;20419;-70
2021/08/30 09:42:22;;;;;;;5.60;4.60;;;21.40;99.90;;;;;;5073315;28;20443;-71
2021/08/30 09:44:48;;;;;;;6.55;4.47;;;21.00;99.90;;;;;;5073416;28;20070;-70
2021/08/30 09:47:21;;;;;;;5.68;4.38;;;21.10;99.90;;;;;;5072167;28;20044;-70
2021/08/30 09:49:51;;;;;;;8.32;4.90;;;21.10;99.90;;;;;;5073295;28;20043;-71
2021/08/30 09:52:21;;;;;;;7.60;4.65;;;21.30;99.90;;;;;;5072153;28;20033;-71
2021/08/30 09:54:47;;;;;;;5.28;4.47;;;21.30;99.90;;;;;;5073409;28;20128;-70
2021/08/30 09:57:14;;;;;;;7.00;5.38;;;21.30;99.90;;;;;;5073333;28;20547;-71
2021/08/30 09:59:42;;;;;;;5.57;4.45;;;21.20;99.90;;;;;;5073046;28;20032;-70
2021/08/30 10:02:10;;;;;;;6.20;4.53;;;21.20;99.90;;;;;;5073062;28;20044;-70
2021/08/30 10:04:37;;;;;;;6.20;4.45;;;21.30;99.90;;;;;;5072203;28;20086;-70
2021/08/30 10:07:03;;;;;;;5.95;4.05;;;21.40;99.90;;;;;;5073259;28;20040;-70
2021/08/30 10:09:30;;;;;;;7.00;5.03;;;21.40;99.90;;;;;;5071583;28;20051;-70
2021/08/30 10:11:56;;;;;;;8.63;4.85;;;21.40;99.90;;;;;;5072516;28;20116;-71
2021/08/30 10:14:27;;;;;;;6.32;4.60;;;21.30;99.90;;;;;;5071962;28;20119;-70
2021/08/30 10:16:55;;;;;;;10.45;5.45;;;21.10;99.90;;;;;;5073078;28;20485;-70
2021/08/30 10:19:30;;;;;;;8.52;4.90;;;21.10;99.90;;;;;;5072920;28;20036;-70
2021/08/30 10:22:01;;;;;;;6.03;5.03;;;21.30;99.90;;;;;;5073161;28;20397;-70
2021/08/30 10:24:38;;;;;;;7.90;4.57;;;21.20;99.90;;;;;;5072021;28;20435;-70
2021/08/30 10:27:08;;;;;;;6.50;4.60;;;21.20;99.90;;;;;;5071860;28;20033;-70
2021/08/30 10:29:35;;;;;;;6.28;4.78;;;21.20;99.90;;;;;;5072868;28;20044;-71
2021/08/30 10:32:02;;;;;;;6.10;4.13;;;21.30;99.90;;;;;;5071690;28;20120;-70
2021/08/30 10:34:35;;;;;;;10.68;5.15;;;21.30;99.90;;;;;;5073016;28;20511;-71
2021/08/30 10:37:03;;;;;;;7.90;4.93;;;21.20;99.90;;;;;;5073049;28;20044;-71
2021/08/30 10:39:42;;;;;;;6.45;4.85;;;21.10;99.90;;;;;;5071625;28;20408;-70
2021/08/30 10:42:12;;;;;;;7.63;5.82;;;21.20;99.90;;;;;;5073161;28;20037;-70
2021/08/30 10:44:56;;;;;;;7.95;4.63;;;21.30;99.90;;;;;;5073095;28;20067;-70
2021/08/30 10:47:32;;;;;;;7.35;5.22;;;21.20;99.90;;;;;;5073038;28;20043;-70
2021/08/30 10:49:57;;;;;;;6.95;5.43;;;21.00;99.90;;;;;;5072561;28;20041;-70
2021/08/30 10:52:23;;;;;;;8.25;5.90;;;20.80;99.90;;;;;;5073206;28;20051;-70
2021/08/30 10:54:53;;;;;;;8.18;6.10;;;20.90;99.90;;;;;;5073312;28;20051;-70
2021/08/30 10:57:19;;;;;;;10.15;6.03;;;20.70;99.90;;;;;;5073715;28;20549;-70
2021/08/30 10:59:57;;;;;;;9.20;5.53;;;20.60;99.90;;;;;;5072300;28;20060;-70
2021/08/30 11:02:33;;;;;;;7.75;5.82;;;20.60;99.90;;;;;;5073177;28;20036;-72
2021/08/30 11:04:59;;;;;;;8.65;5.40;;;20.50;99.90;;;;;;5071468;28;20485;-75
2021/08/30 11:07:25;;;;;;;8.77;4.68;;;20.70;99.90;;;;;;5071374;28;20070;-75
2021/08/30 11:09:50;;;;;;;5.78;4.78;;;21.20;99.90;;;;;;5071376;28;20385;-76
2021/08/30 11:12:16;;;;;;;7.18;4.88;;;21.40;99.90;;;;;;5071733;28;20045;-76
2021/08/30 11:14:42;;;;;;;8.43;4.70;;;21.40;99.90;;;;;;5073979;28;20033;-76
2021/08/30 11:17:13;;;;;;;9.13;4.82;;;21.40;99.90;;;;;;5076508;28;20416;-77
2021/08/30 11:19:39;;;;;;;6.47;4.68;;;21.30;99.90;;;;;;5057904;28;20036;-77
2021/08/30 11:22:07;;;;;;;8.77;5.72;;;21.20;99.90;;;;;;5076023;28;20090;-76
2021/08/30 11:24:36;;;;;;;5.50;4.70;;;21.40;99.90;;;;;;5076255;28;20036;-76
2021/08/30 11:27:16;;;;;;;7.35;5.05;;;21.30;99.90;;;;;;5075204;28;20062;-76
2021/08/30 11:29:49;;;;;;;6.85;4.90;;;21.50;99.90;;;;;;5075897;28;20465;-78
2021/08/30 11:32:16;;;;;;;8.32;5.03;;;21.30;99.90;;;;;;5074803;28;20506;-77
2021/08/30 11:34:44;;;;;;;6.90;4.70;;;21.40;99.90;;;;;;5074713;28;20036;-77
2021/08/30 11:37:13;;;;;;;5.50;4.53;;;21.30;99.90;;;;;;5075886;28;20037;-76
2021/08/30 11:39:41;;;;;;;6.25;4.60;;;21.40;99.90;;;;;;5075553;28;20090;-76
2021/08/30 11:42:08;;;;;;;7.78;4.65;;;21.60;99.90;;;;;;5074644;28;20045;-77
2021/08/30 11:44:35;;;;;;;8.02;5.32;;;21.60;99.90;;;;;;5075733;28;20092;-77
2021/08/30 11:47:04;;;;;;;8.13;5.35;;;21.60;99.90;;;;;;5075755;28;20040;-76
2021/08/30 11:49:44;;;;;;;7.20;5.32;;;21.60;99.90;;;;;;5075547;28;20105;-77
2021/08/30 11:52:12;;;;;;;7.63;4.90;;;21.60;99.90;;;;;;5075669;28;20040;-76
2021/08/30 11:54:40;;;;;;;7.68;5.18;;;21.60;99.90;;;;;;5074280;28;20040;-77
2021/08/30 11:57:10;;;;;;;6.97;5.25;;;21.40;99.90;;;;;;5075926;28;20385;-76
2021/08/30 11:59:38;;;;;;;7.40;5.10;;;21.40;99.90;;;;;;5074247;28;20047;-76
2021/08/30 12:02:06;;;;;;;6.32;5.32;;;21.00;99.90;;;;;;5074401;28;20055;-77
2021/08/30 12:04:34;;;;;;;9.18;5.50;;;21.10;99.90;;;;;;5074458;28;20126;-77
2021/08/30 12:07:08;;;;;;;6.88;5.30;;;21.10;99.90;;;;;;5074252;28;20044;-76
2021/08/30 12:09:43;;;;;;;7.50;5.63;;;21.10;99.90;;;;;;5074064;28;20119;-76
2021/08/30 12:12:27;;;;;;;8.20;6.18;;;21.20;99.90;;;;;;5075663;28;20115;-77
2021/08/30 12:15:13;;;;;;;9.40;5.55;;;21.30;99.90;;;;;;5074094;28;20115;-77
2021/08/30 12:17:50;;;;;;;10.30;5.75;;;21.30;99.90;;;;;;5073818;28;20072;-76
2021/08/30 12:20:19;;;;;;;8.60;5.32;;;21.30;99.90;;;;;;5074784;28;20052;-75
2021/08/30 12:22:50;;;;;;;7.25;5.13;;;21.30;99.90;;;;;;5075093;28;20166;-75
2021/08/30 12:25:20;;;;;;;8.10;6.28;;;21.00;99.90;;;;;;5075115;28;20143;-75
2021/08/30 12:27:47;;;;;;;8.02;5.45;;;20.90;99.90;;;;;;5073648;28;20041;-76
2021/08/30 12:30:27;;;;;;;10.05;5.95;;;20.90;99.90;;;;;;5074795;28;20044;-77
2021/08/30 12:32:58;;;;;;;11.43;6.53;;;21.20;99.90;;;;;;5073949;28;20094;-76
2021/08/30 12:35:29;;;;;;;9.90;6.40;;;21.10;99.90;;;;;;5074804;28;20032;-76
2021/08/30 12:37:58;;;;;;;9.65;6.72;;;21.10;99.90;;;;;;5074705;28;20036;-77
2021/08/30 12:40:25;;;;;;;10.85;6.78;;;20.90;99.90;;;;;;5072882;28;20044;-77
2021/08/30 12:42:52;;;;;;;9.70;6.22;;;20.90;99.90;;;;;;5073119;28;20481;-76